createdAt,value
2019-05-17T00:04:52.115Z,21.87
2019-05-17T00:09:57.400Z,20.23
2019-05-17T00:15:02.173Z,23.40
2019-05-17T00:20:08.974Z,29.53
2019-05-17T00:25:16.505Z,25.23
2019-05-17T00:30:20.825Z,16.60
2019-05-17T00:35:26.782Z,17.00
2019-05-17T00:40:32.619Z,17.60
2019-05-17T00:45:37.844Z,14.20
2019-05-17T00:50:42.695Z,18.67
2019-05-17T00:55:47.545Z,10.63
2019-05-17T01:00:52.307Z,9.37
2019-05-17T01:05:57.010Z,6.80
2019-05-17T01:11:01.695Z,12.90
2019-05-17T01:16:07.322Z,7.47
2019-05-17T01:21:13.211Z,9.53
2019-05-17T01:26:18.407Z,6.13
2019-05-17T01:31:23.431Z,7.63
2019-05-17T01:36:28.176Z,7.97
2019-05-17T01:41:32.861Z,10.50
2019-05-17T01:46:37.548Z,11.57
2019-05-17T01:51:42.293Z,11.03
2019-05-17T01:56:47.075Z,11.37
2019-05-17T02:01:53.431Z,12.57
2019-05-17T02:06:58.143Z,11.40
2019-05-17T02:12:02.842Z,10.80
2019-05-17T02:17:07.577Z,8.67
2019-05-17T02:22:12.378Z,7.93
2019-05-17T02:27:17.324Z,6.23
2019-05-17T02:32:23.485Z,3.53
2019-05-17T02:37:28.416Z,4.70
2019-05-17T02:42:33.511Z,3.90
2019-05-17T02:47:38.808Z,6.27
2019-05-17T02:52:44.292Z,4.30
2019-05-17T02:57:52.700Z,4.83
2019-05-17T03:02:56.633Z,5.30
2019-05-17T03:08:04.143Z,6.10
2019-05-17T03:13:07.700Z,5.40
2019-05-17T03:18:13.373Z,4.63
2019-05-17T03:23:19.427Z,7.73
2019-05-17T03:28:24.834Z,11.03
2019-05-17T03:33:35.543Z,8.77
2019-05-17T03:38:36.840Z,6.50
2019-05-17T03:43:44.213Z,7.00
2019-05-17T03:48:48.286Z,7.67
2019-05-17T03:53:53.272Z,6.77
2019-05-17T03:58:58.283Z,7.60
2019-05-17T04:04:03.248Z,11.30
2019-05-17T04:09:08.300Z,6.03
2019-05-17T04:14:14.058Z,11.77
2019-05-17T04:19:19.177Z,6.72
2019-05-17T04:24:24.153Z,6.77
2019-05-17T04:29:28.884Z,6.43
2019-05-17T04:34:33.945Z,8.70
2019-05-17T04:39:38.954Z,10.30
2019-05-17T04:44:44.750Z,9.33
2019-05-17T04:49:53.310Z,10.60
2019-05-17T04:54:55.879Z,10.37
2019-05-17T05:00:04.281Z,15.37
2019-05-17T05:05:07.498Z,14.77
2019-05-17T05:10:13.488Z,16.87
2019-05-17T05:15:23.174Z,13.15
2019-05-17T05:20:27.903Z,13.10
2019-05-17T05:25:32.692Z,17.47
2019-05-17T05:30:37.480Z,13.43
2019-05-17T05:35:42.629Z,17.50
2019-05-17T05:40:47.607Z,15.80
2019-05-17T05:45:53.617Z,16.35
2019-05-17T05:51:02.067Z,20.68
2019-05-17T05:56:05.632Z,19.90
2019-05-17T06:01:12.585Z,24.07
2019-05-17T06:06:16.855Z,25.67
2019-05-17T06:11:21.726Z,26.27
2019-05-17T06:16:26.472Z,22.13
2019-05-17T06:21:31.953Z,27.83
2019-05-17T06:26:37.876Z,29.52
2019-05-17T06:31:43.467Z,36.50
2019-05-17T06:36:48.383Z,36.17
2019-05-17T06:41:53.129Z,31.35
2019-05-17T06:46:57.885Z,30.43
2019-05-17T06:52:02.654Z,24.72
2019-05-17T06:57:07.366Z,29.72
2019-05-17T07:02:12.191Z,25.05
2019-05-17T07:07:26.284Z,28.12
2019-05-17T07:12:31.011Z,28.12
2019-05-17T07:17:35.726Z,21.10
2019-05-17T07:22:41.069Z,18.57
2019-05-17T07:27:46.144Z,25.82
2019-05-17T07:32:51.326Z,21.42
2019-05-17T07:37:59.364Z,20.68
2019-05-17T07:43:10.673Z,20.30
2019-05-17T07:48:10.048Z,19.73
2019-05-17T07:53:14.883Z,19.82
2019-05-17T07:58:21.461Z,17.20
2019-05-17T08:03:26.424Z,17.23
2019-05-17T08:08:31.473Z,19.15
2019-05-17T08:13:36.311Z,15.90
2019-05-17T08:18:41.440Z,15.28
2019-05-17T08:23:46.138Z,14.33
2019-05-17T08:28:50.886Z,17.90
2019-05-17T08:33:55.719Z,16.80
2019-05-17T08:39:00.414Z,14.63
2019-05-17T08:44:05.391Z,14.70
2019-05-17T08:49:10.558Z,15.23
2019-05-17T08:54:15.349Z,16.40
2019-05-17T08:59:20.284Z,14.30
2019-05-17T09:04:25.579Z,14.05
2019-05-17T09:09:31.457Z,14.00
2019-05-17T09:14:36.380Z,12.98
2019-05-17T09:19:41.132Z,13.58
2019-05-17T09:24:45.858Z,12.93
2019-05-17T09:29:50.729Z,13.25
2019-05-17T09:34:55.434Z,12.85
2019-05-17T09:40:00.192Z,13.50
2019-05-17T09:45:05.492Z,11.22
2019-05-17T09:50:11.763Z,12.53
2019-05-17T09:55:16.834Z,10.27
2019-05-17T10:00:21.951Z,12.40
2019-05-17T10:05:26.723Z,16.20
2019-05-17T10:10:31.435Z,10.43
2019-05-17T10:15:36.377Z,11.75
2019-05-17T10:20:41.221Z,11.53
2019-05-17T10:25:47.265Z,9.45
2019-05-17T10:30:52.463Z,11.22
2019-05-17T10:35:57.415Z,10.28
2019-05-17T10:41:02.510Z,13.55
2019-05-17T10:46:07.646Z,9.33
2019-05-17T10:51:13.523Z,11.00
2019-05-17T10:56:20.569Z,8.20
2019-05-17T11:01:25.880Z,8.23
2019-05-17T11:06:30.577Z,8.73
2019-05-17T11:11:35.274Z,7.22
2019-05-17T11:16:40.003Z,9.88
2019-05-17T11:21:44.888Z,9.23
2019-05-17T11:26:49.647Z,8.68
2019-05-17T11:31:54.362Z,7.65
2019-05-17T11:36:59.036Z,9.88
2019-05-17T11:42:04.761Z,10.93
2019-05-17T11:47:09.549Z,10.18
2019-05-17T11:52:14.269Z,9.05
2019-05-17T11:57:19.001Z,11.80
2019-05-17T12:02:23.773Z,8.63
2019-05-17T12:07:28.540Z,9.50
2019-05-17T12:12:33.252Z,9.23
2019-05-17T12:17:38.034Z,9.68
2019-05-17T12:22:42.855Z,9.45
2019-05-17T12:27:47.550Z,8.45
2019-05-17T12:32:52.335Z,8.73
2019-05-17T12:37:56.997Z,7.53
2019-05-17T12:43:01.797Z,9.30
2019-05-17T12:48:06.551Z,9.05
2019-05-17T12:53:11.327Z,9.03
2019-05-17T12:58:16.086Z,7.47
2019-05-17T13:03:20.949Z,9.63
2019-05-17T13:08:25.703Z,8.73
2019-05-17T13:13:30.505Z,8.80
2019-05-17T13:18:35.267Z,7.17
2019-05-17T13:23:41.013Z,7.97
2019-05-17T13:28:45.721Z,7.80
2019-05-17T13:33:50.509Z,8.60
2019-05-17T13:38:55.293Z,8.98
2019-05-17T13:44:01.144Z,6.42
2019-05-17T13:49:06.069Z,8.90
2019-05-17T13:54:11.753Z,10.15
2019-05-17T13:59:16.557Z,9.55
2019-05-17T14:04:21.313Z,9.03
2019-05-17T14:09:26.159Z,7.45
2019-05-17T14:14:30.866Z,7.08
2019-05-17T14:19:35.681Z,10.23
2019-05-17T14:24:40.489Z,8.48
2019-05-17T14:29:45.196Z,12.10
2019-05-17T14:34:50.705Z,4.90
2019-05-17T14:39:55.448Z,22.30
2019-05-17T14:45:00.144Z,8.03
2019-05-17T14:50:05.503Z,6.10
2019-05-17T14:55:10.334Z,13.90
2019-05-17T15:00:15.439Z,7.33
2019-05-17T15:05:20.132Z,14.50
2019-05-17T15:10:24.866Z,9.05
2019-05-17T15:15:30.714Z,7.37
2019-05-17T15:20:36.400Z,8.15
2019-05-17T15:25:41.348Z,8.88
2019-05-17T15:30:46.214Z,11.53
2019-05-17T15:35:50.926Z,8.53
2019-05-17T15:40:55.576Z,6.67
2019-05-17T15:46:00.290Z,17.55
2019-05-17T15:51:05.251Z,8.40
2019-05-17T15:56:10.044Z,6.03
2019-05-17T16:01:14.922Z,6.77
2019-05-17T16:06:20.587Z,6.33
2019-05-17T16:11:25.292Z,7.28
2019-05-17T16:16:29.994Z,9.73
2019-05-17T16:21:34.771Z,7.42
2019-05-17T16:26:39.456Z,6.62
2019-05-17T16:31:44.194Z,5.85
2019-05-17T16:36:49.912Z,7.03
2019-05-17T16:41:54.751Z,6.92
2019-05-17T16:46:59.533Z,6.30
2019-05-17T16:52:05.361Z,6.25
2019-05-17T16:57:10.740Z,6.28
2019-05-17T17:02:15.616Z,5.20
2019-05-17T17:07:20.383Z,5.35
2019-05-17T17:12:25.176Z,6.67
2019-05-17T17:17:30.048Z,5.70
2019-05-17T17:22:34.904Z,6.42
2019-05-17T17:27:39.613Z,6.75
2019-05-17T17:32:44.805Z,6.00
2019-05-17T17:37:49.462Z,5.78
2019-05-17T17:42:54.276Z,7.10
2019-05-17T17:47:59.111Z,8.50
2019-05-17T17:53:05.721Z,7.92
2019-05-17T17:58:10.478Z,6.03
2019-05-17T18:03:15.386Z,7.35
2019-05-17T18:08:20.253Z,7.47
2019-05-17T18:13:25.119Z,7.60
2019-05-17T18:18:29.958Z,7.08
2019-05-17T18:23:34.732Z,10.32
2019-05-17T18:28:39.628Z,8.93
2019-05-17T18:33:44.274Z,9.35
2019-05-17T18:38:52.098Z,7.90
2019-05-17T18:43:56.950Z,9.78
2019-05-17T18:49:01.696Z,9.93
2019-05-17T18:54:07.838Z,10.40
2019-05-17T18:59:12.591Z,10.90
2019-05-17T19:04:17.343Z,9.63
2019-05-17T19:09:22.204Z,10.43
2019-05-17T19:14:40.719Z,11.83
2019-05-17T19:19:33.848Z,11.20
2019-05-17T19:24:38.631Z,11.80
2019-05-17T19:29:43.545Z,12.95
2019-05-17T19:34:49.474Z,11.95
2019-05-17T19:39:54.557Z,11.57
2019-05-17T19:44:59.654Z,15.23
2019-05-17T19:50:05.631Z,14.56
2019-05-17T19:55:10.596Z,13.17
2019-05-17T20:00:16.067Z,14.07
2019-05-17T20:05:20.903Z,13.43
2019-05-17T20:10:25.942Z,13.98
2019-05-17T20:15:34.663Z,11.73
2019-05-17T20:20:37.396Z,13.53
2019-05-17T20:25:43.518Z,13.75
2019-05-17T20:30:48.229Z,14.93
2019-05-17T20:35:53.029Z,15.13
2019-05-17T20:40:57.878Z,14.35
2019-05-17T20:46:02.587Z,15.28
2019-05-17T20:51:08.524Z,18.85
2019-05-17T20:56:13.312Z,17.92
2019-05-17T21:01:18.035Z,12.73
2019-05-17T21:06:22.936Z,15.30
2019-05-17T21:11:27.884Z,15.18
2019-05-17T21:16:33.026Z,16.83
2019-05-17T21:21:38.313Z,16.77
2019-05-17T21:26:43.975Z,16.32
2019-05-17T21:31:48.645Z,16.50
2019-05-17T21:36:53.451Z,15.80
2019-05-17T21:41:58.155Z,14.50
2019-05-17T21:47:05.003Z,13.80
2019-05-17T21:52:09.299Z,16.35
